Time;durP1;ratioP1;P1;durP2;ratioP2;P2;SDS_P1;SDS_P2;PMS_P1;PMS_P2;Temp;Humidity;BMP_temperature;BMP_pressure;BME280_temperature;BME280_humidity;BME280_pressure;Samples;Min_cycle;Max_cycle;Signal;HPM_P1;HPM_P2
2023/11/11 00:00:07;;;;;;;1.93;0.93;;;7.50;99.90;;;;;;4977659;28;20454;-80
2023/11/11 00:02:34;;;;;;;2.07;0.70;;;7.50;99.90;;;;;;4972140;28;20966;-81
2023/11/11 00:05:00;;;;;;;1.80;0.70;;;7.50;99.90;;;;;;4976337;28;20473;-82
2023/11/11 00:07:29;;;;;;;2.90;0.87;;;7.50;99.90;;;;;;4977076;28;20916;-81
2023/11/11 00:09:55;;;;;;;1.90;0.87;;;7.60;99.90;;;;;;4977554;28;20466;-82
2023/11/11 00:12:22;;;;;;;1.60;0.87;;;7.50;99.90;;;;;;4977071;28;20459;-81
2023/11/11 00:14:50;;;;;;;1.70;1.00;;;7.50;99.90;;;;;;4976873;28;20568;-82
2023/11/11 00:17:17;;;;;;;2.30;1.30;;;7.60;99.90;;;;;;4976565;28;20488;-80
2023/11/11 00:19:44;;;;;;;4.07;1.50;;;7.60;99.90;;;;;;4977642;28;20484;-82
2023/11/11 00:22:12;;;;;;;3.10;1.30;;;7.60;99.90;;;;;;4977994;28;20463;-84
2023/11/11 00:24:42;;;;;;;2.77;1.40;;;7.60;99.90;;;;;;4977793;28;20504;-82
2023/11/11 00:27:12;;;;;;;2.93;1.20;;;7.70;99.90;;;;;;4978806;28;20944;-83
2023/11/11 00:29:40;;;;;;;2.70;1.40;;;7.70;99.90;;;;;;4981007;28;20456;-82
2023/11/11 00:32:08;;;;;;;1.97;1.30;;;7.70;99.90;;;;;;4982131;28;20454;-84
2023/11/11 00:34:35;;;;;;;1.90;1.37;;;7.70;99.90;;;;;;4980841;28;20495;-82
2023/11/11 00:37:02;;;;;;;2.57;1.77;;;7.70;99.90;;;;;;4979389;28;20500;-81
2023/11/11 00:39:33;;;;;;;2.47;1.43;;;7.80;99.90;;;;;;4979186;28;20821;-84
2023/11/11 00:42:01;;;;;;;2.43;1.67;;;7.80;99.90;;;;;;4980946;28;20446;-82
2023/11/11 00:44:28;;;;;;;2.37;1.70;;;7.70;99.90;;;;;;4978940;28;20783;-83
2023/11/11 00:46:55;;;;;;;1.90;1.50;;;7.70;99.90;;;;;;4978161;28;20828;-83
2023/11/11 00:49:22;;;;;;;4.43;1.63;;;7.70;99.90;;;;;;4979130;28;20489;-82
2023/11/11 00:51:48;;;;;;;1.60;1.10;;;7.70;99.90;;;;;;4979331;28;20467;-81
2023/11/11 00:54:15;;;;;;;2.47;1.83;;;7.70;99.90;;;;;;4979501;28;20917;-82
2023/11/11 00:56:41;;;;;;;3.53;1.73;;;7.70;99.90;;;;;;4978553;28;20224;-81
2023/11/11 00:59:10;;;;;;;1.93;1.70;;;7.70;99.90;;;;;;4979659;28;20599;-82
2023/11/11 01:01:37;;;;;;;2.63;1.70;;;7.80;99.90;;;;;;4985902;28;20456;-81
2023/11/11 01:04:04;;;;;;;2.40;1.73;;;7.80;99.90;;;;;;4974290;28;20464;-81
2023/11/11 01:06:31;;;;;;;3.10;1.90;;;7.70;99.90;;;;;;4975948;28;20863;-82
2023/11/11 01:08:58;;;;;;;9.30;2.90;;;7.70;99.90;;;;;;4975951;28;20461;-82
2023/11/11 01:11:25;;;;;;;2.40;2.00;;;7.70;99.90;;;;;;4975690;28;20456;-82
2023/11/11 01:13:51;;;;;;;2.70;1.80;;;7.80;99.90;;;;;;4975940;28;20460;-82
2023/11/11 01:16:20;;;;;;;3.30;1.93;;;7.80;99.90;;;;;;4975025;28;20944;-81
2023/11/11 01:18:47;;;;;;;2.10;1.57;;;7.80;99.90;;;;;;4974770;28;20464;-82
2023/11/11 01:21:15;;;;;;;2.13;1.60;;;7.80;99.90;;;;;;4975205;28;20480;-81
2023/11/11 01:23:42;;;;;;;2.33;1.83;;;7.80;99.90;;;;;;4974902;28;20550;-80
2023/11/11 01:26:09;;;;;;;2.63;1.60;;;7.80;99.90;;;;;;4974805;28;20472;-82
2023/11/11 01:28:36;;;;;;;8.07;2.30;;;7.80;99.90;;;;;;4975069;28;20544;-81
2023/11/11 01:31:04;;;;;;;3.50;2.53;;;7.80;99.90;;;;;;4974850;28;20496;-81
2023/11/11 01:33:32;;;;;;;3.93;2.83;;;7.80;99.90;;;;;;4975051;28;21011;-82
2023/11/11 01:36:00;;;;;;;4.90;2.97;;;7.80;99.90;;;;;;4975450;28;20575;-82
2023/11/11 01:38:27;;;;;;;4.17;3.30;;;7.80;99.90;;;;;;4975316;28;20471;-82
2023/11/11 01:40:54;;;;;;;7.97;5.00;;;7.80;99.90;;;;;;4975033;28;20538;-82
2023/11/11 01:43:21;;;;;;;7.40;5.40;;;7.90;99.90;;;;;;4975477;28;20455;-82
2023/11/11 01:45:48;;;;;;;10.07;6.37;;;7.90;99.90;;;;;;4975424;28;20489;-82
2023/11/11 01:48:17;;;;;;;9.67;6.77;;;7.90;99.90;;;;;;4976964;28;20930;-82
2023/11/11 01:50:46;;;;;;;12.40;6.90;;;7.90;99.90;;;;;;4975543;28;20991;-82
2023/11/11 01:53:15;;;;;;;11.23;7.47;;;8.00;99.90;;;;;;4976069;28;20461;-81
2023/11/11 01:55:43;;;;;;;12.80;8.57;;;8.00;99.90;;;;;;4975173;28;20860;-82
2023/11/11 01:58:10;;;;;;;15.67;9.40;;;8.00;99.90;;;;;;4975241;28;20462;-80
2023/11/11 02:00:38;;;;;;;12.33;8.30;;;8.00;99.90;;;;;;4975287;28;20464;-82
2023/11/11 02:03:06;;;;;;;13.93;10.00;;;8.00;99.90;;;;;;4975064;28;20471;-81
2023/11/11 02:05:34;;;;;;;14.57;9.80;;;8.00;99.90;;;;;;4967195;28;20500;-83
2023/11/11 02:08:05;;;;;;;18.50;12.40;;;8.10;99.90;;;;;;4974969;28;20844;-83
2023/11/11 02:10:33;;;;;;;21.77;12.93;;;8.00;99.90;;;;;;4967573;28;20455;-81
2023/11/11 02:13:04;;;;;;;22.70;13.07;;;8.00;99.90;;;;;;4980273;28;20440;-81
2023/11/11 02:15:31;;;;;;;21.20;14.27;;;8.00;99.90;;;;;;4975986;28;20484;-83
2023/11/11 02:18:01;;;;;;;25.60;16.90;;;7.90;99.90;;;;;;4982556;28;20520;-83
2023/11/11 02:20:29;;;;;;;29.73;18.80;;;8.00;99.90;;;;;;4981890;28;20830;-81
2023/11/11 02:22:56;;;;;;;25.80;17.23;;;7.90;99.90;;;;;;4978877;28;20962;-80
2023/11/11 02:25:24;;;;;;;28.00;17.60;;;8.00;99.90;;;;;;4978234;28;20944;-81
2023/11/11 02:27:51;;;;;;;29.50;17.23;;;8.00;99.90;;;;;;4978370;28;20473;-81
2023/11/11 02:30:18;;;;;;;25.00;16.13;;;8.10;99.90;;;;;;4978662;28;20961;-83
2023/11/11 02:32:45;;;;;;;24.23;17.07;;;8.10;99.90;;;;;;4978234;28;20510;-81
2023/11/11 02:35:12;;;;;;;26.67;18.50;;;8.00;99.90;;;;;;4978581;28;20477;-81
2023/11/11 02:37:39;;;;;;;30.50;18.93;;;8.00;99.90;;;;;;4979352;28;20873;-82
2023/11/11 02:40:11;;;;;;;25.77;17.53;;;8.00;99.90;;;;;;4978329;28;20459;-81
2023/11/11 02:42:40;;;;;;;25.47;17.47;;;8.00;99.90;;;;;;4973816;28;20468;-81
2023/11/11 02:45:07;;;;;;;26.50;18.80;;;8.00;99.90;;;;;;4977420;28;21043;-81
2023/11/11 02:47:34;;;;;;;25.73;17.47;;;7.90;99.90;;;;;;4977509;28;20547;-81
2023/11/11 02:50:01;;;;;;;24.53;17.80;;;8.00;99.90;;;;;;4979292;28;20449;-80
2023/11/11 02:52:28;;;;;;;27.00;18.23;;;8.00;99.90;;;;;;4974652;28;20479;-82
2023/11/11 02:54:55;;;;;;;24.43;16.73;;;8.00;99.90;;;;;;4972259;28;20477;-81
2023/11/11 02:57:22;;;;;;;23.90;16.20;;;7.90;99.90;;;;;;4977320;28;20503;-81
2023/11/11 02:59:50;;;;;;;24.73;17.17;;;7.90;99.90;;;;;;4976176;28;20458;-81
2023/11/11 03:02:17;;;;;;;24.43;16.30;;;7.90;99.90;;;;;;4976875;28;20445;-81
2023/11/11 03:04:44;;;;;;;26.17;16.50;;;7.90;99.90;;;;;;4976719;28;21028;-81
2023/11/11 03:07:11;;;;;;;22.43;16.37;;;7.90;99.90;;;;;;4976249;28;20447;-80
2023/11/11 03:09:40;;;;;;;23.83;15.23;;;7.80;99.90;;;;;;4976654;28;20463;-82
2023/11/11 03:12:09;;;;;;;19.63;15.07;;;7.80;99.90;;;;;;4977057;28;20453;-79
2023/11/11 03:14:36;;;;;;;22.57;14.37;;;7.80;99.90;;;;;;4977104;28;20557;-80
2023/11/11 03:17:04;;;;;;;21.20;14.63;;;7.70;99.90;;;;;;4976817;28;20525;-81
2023/11/11 03:19:31;;;;;;;21.87;15.00;;;7.70;99.90;;;;;;4977065;28;20909;-81
2023/11/11 03:21:58;;;;;;;26.40;14.37;;;7.70;99.90;;;;;;4978563;28;20557;-80
2023/11/11 03:24:25;;;;;;;22.87;12.97;;;7.60;99.90;;;;;;4968526;28;20489;-81
2023/11/11 03:26:52;;;;;;;20.37;12.80;;;7.70;99.90;;;;;;4977041;28;20464;-79
2023/11/11 03:29:18;;;;;;;21.70;14.80;;;7.60;99.90;;;;;;4976938;28;20461;-81
2023/11/11 03:31:45;;;;;;;22.40;15.30;;;7.50;99.90;;;;;;4976913;28;20895;-80
2023/11/11 03:34:13;;;;;;;20.27;13.80;;;7.40;99.90;;;;;;4976125;28;20992;-80
2023/11/11 03:36:41;;;;;;;17.97;12.17;;;7.50;99.90;;;;;;4977512;28;20606;-80
2023/11/11 03:39:08;;;;;;;21.47;13.30;;;7.50;99.90;;;;;;4976637;28;20461;-81
2023/11/11 03:41:35;;;;;;;15.87;11.83;;;7.50;99.90;;;;;;4976977;28;20961;-82
2023/11/11 03:44:01;;;;;;;20.07;12.80;;;7.40;99.90;;;;;;4977508;28;20464;-82
2023/11/11 03:46:28;;;;;;;19.00;12.80;;;7.40;99.90;;;;;;4976163;28;20615;-81
2023/11/11 03:48:55;;;;;;;17.30;13.00;;;7.40;99.90;;;;;;4977334;28;20452;-81
2023/11/11 03:51:23;;;;;;;19.53;12.87;;;7.40;99.90;;;;;;4977516;28;20469;-83
2023/11/11 03:53:50;;;;;;;18.63;12.00;;;7.40;99.90;;;;;;4977129;28;20456;-82
2023/11/11 03:56:19;;;;;;;22.87;13.60;;;7.20;99.90;;;;;;4978422;28;20496;-81
2023/11/11 03:58:46;;;;;;;18.53;12.80;;;7.20;99.90;;;;;;4977489;28;20813;-82
2023/11/11 04:01:13;;;;;;;17.53;13.40;;;7.20;99.90;;;;;;4977368;28;20470;-81
2023/11/11 04:03:42;;;;;;;16.53;12.37;;;7.20;99.90;;;;;;4977252;28;20451;-83
2023/11/11 04:06:10;;;;;;;16.83;11.80;;;7.20;99.90;;;;;;4978041;28;20515;-81
2023/11/11 04:08:39;;;;;;;13.93;11.30;;;7.30;99.90;;;;;;4977753;28;20457;-82
2023/11/11 04:11:07;;;;;;;21.80;13.00;;;7.40;99.90;;;;;;4977645;28;20508;-83
2023/11/11 04:13:34;;;;;;;17.77;12.30;;;7.40;99.90;;;;;;4977784;28;20461;-82
2023/11/11 04:16:01;;;;;;;17.90;12.20;;;7.40;99.90;;;;;;4977140;28;20558;-82
2023/11/11 04:18:28;;;;;;;14.33;11.20;;;7.50;99.90;;;;;;4978483;28;20525;-83
2023/11/11 04:20:55;;;;;;;15.73;12.10;;;7.60;99.90;;;;;;4978649;28;20568;-84
2023/11/11 04:23:24;;;;;;;19.70;11.30;;;7.60;99.90;;;;;;4977846;28;20453;-83
2023/11/11 04:25:53;;;;;;;20.43;13.43;;;7.60;99.90;;;;;;4977986;28;20540;-82
2023/11/11 04:28:20;;;;;;;16.40;11.03;;;7.60;99.90;;;;;;4977984;28;20458;-80
2023/11/11 04:30:47;;;;;;;19.23;11.67;;;7.60;99.90;;;;;;4976739;28;20460;-82
2023/11/11 04:33:15;;;;;;;16.73;11.13;;;7.70;99.90;;;;;;4978590;28;20462;-81
2023/11/11 04:35:42;;;;;;;19.57;12.83;;;7.70;99.90;;;;;;4977855;28;20484;-81
2023/11/11 04:38:09;;;;;;;17.37;11.63;;;7.70;99.90;;;;;;4977719;28;20500;-83
2023/11/11 04:40:37;;;;;;;20.67;12.30;;;7.70;99.90;;;;;;4977911;28;20471;-81
2023/11/11 04:43:05;;;;;;;16.80;11.40;;;7.80;99.90;;;;;;4978306;28;20472;-84
2023/11/11 04:45:32;;;;;;;16.13;11.23;;;7.70;99.90;;;;;;4978510;28;20502;-83
2023/11/11 04:47:59;;;;;;;18.40;11.70;;;7.70;99.90;;;;;;4979065;28;20481;-84
2023/11/11 04:50:27;;;;;;;16.10;11.33;;;7.70;99.90;;;;;;4978313;28;20452;-84
2023/11/11 04:52:53;;;;;;;15.70;10.23;;;7.70;99.90;;;;;;4978508;28;20467;-84
2023/11/11 04:55:20;;;;;;;14.37;10.57;;;7.70;99.90;;;;;;4979038;28;20471;-84
2023/11/11 04:57:47;;;;;;;12.00;9.17;;;7.70;99.90;;;;;;4979333;28;20556;-84
2023/11/11 05:00:17;;;;;;;17.40;10.30;;;7.70;99.90;;;;;;4979241;28;20461;-82
2023/11/11 05:02:44;;;;;;;20.03;10.73;;;7.70;99.90;;;;;;4982304;28;20492;-80
2023/11/11 05:05:11;;;;;;;16.33;10.10;;;7.60;99.90;;;;;;4982781;28;20560;-79
2023/11/11 05:07:38;;;;;;;17.30;10.97;;;7.60;99.90;;;;;;4992692;28;20451;-81
2023/11/11 05:10:07;;;;;;;14.73;10.43;;;7.60;99.90;;;;;;4992899;28;20461;-82
2023/11/11 05:12:35;;;;;;;12.83;9.57;;;7.50;99.90;;;;;;4985025;28;20460;-80
2023/11/11 05:15:07;;;;;;;13.20;9.30;;;7.60;99.90;;;;;;4993183;28;20480;-80
2023/11/11 05:17:35;;;;;;;13.00;9.60;;;7.60;99.90;;;;;;4993823;28;20495;-79
2023/11/11 05:20:02;;;;;;;14.20;9.07;;;7.70;99.90;;;;;;4990944;28;20546;-83
2023/11/11 05:22:29;;;;;;;15.20;9.20;;;7.60;99.90;;;;;;4979515;28;20483;-84
2023/11/11 05:24:56;;;;;;;19.00;9.20;;;7.60;99.90;;;;;;4978608;28;21037;-82
2023/11/11 05:27:24;;;;;;;15.63;8.57;;;7.50;99.90;;;;;;4978286;28;20472;-83
2023/11/11 05:29:50;;;;;;;13.33;8.43;;;7.60;99.90;;;;;;4979352;28;20461;-83
2023/11/11 05:32:17;;;;;;;10.80;9.03;;;7.60;99.90;;;;;;4978800;28;20512;-84
2023/11/11 05:34:45;;;;;;;14.63;9.63;;;7.50;99.90;;;;;;4978750;28;20486;-83
2023/11/11 05:37:12;;;;;;;17.27;10.30;;;7.50;99.90;;;;;;4976765;28;20515;-82
2023/11/11 05:39:39;;;;;;;14.13;9.17;;;7.50;99.90;;;;;;4975316;28;20459;-82
2023/11/11 05:42:06;;;;;;;11.30;8.40;;;7.40;99.90;;;;;;4977389;28;21180;-81
2023/11/11 05:44:32;;;;;;;17.57;9.37;;;7.50;99.90;;;;;;4976946;28;20562;-81
2023/11/11 05:46:59;;;;;;;9.83;7.43;;;7.50;99.90;;;;;;4981741;28;20448;-81
2023/11/11 05:49:26;;;;;;;13.43;8.00;;;7.50;99.90;;;;;;4981797;28;20543;-81
2023/11/11 05:51:54;;;;;;;8.03;6.80;;;7.50;99.90;;;;;;4981152;28;20454;-81
2023/11/11 05:54:21;;;;;;;10.07;6.37;;;7.40;99.90;;;;;;4981813;28;20909;-81
2023/11/11 05:56:48;;;;;;;13.80;6.80;;;7.40;99.90;;;;;;4981116;28;20828;-82
2023/11/11 05:59:14;;;;;;;9.53;6.33;;;7.40;99.90;;;;;;4980924;28;20819;-81
2023/11/11 06:01:46;;;;;;;7.70;5.67;;;7.40;99.90;;;;;;4981481;28;20459;-83
2023/11/11 06:04:14;;;;;;;10.70;6.97;;;7.50;99.90;;;;;;4980765;28;20467;-82
2023/11/11 06:06:41;;;;;;;11.60;7.80;;;7.50;99.90;;;;;;4980447;28;20471;-82
2023/11/11 06:09:11;;;;;;;12.50;7.47;;;7.40;99.90;;;;;;4965359;28;20976;-81
2023/11/11 06:11:43;;;;;;;13.73;7.63;;;7.40;99.90;;;;;;4979401;28;20896;-80
2023/11/11 06:14:09;;;;;;;7.57;6.83;;;7.40;99.90;;;;;;4981165;28;20475;-81
2023/11/11 06:16:36;;;;;;;11.60;6.33;;;7.40;99.90;;;;;;4979020;28;20475;-78
2023/11/11 06:19:03;;;;;;;9.43;4.70;;;7.40;99.90;;;;;;4977818;28;20990;-80
2023/11/11 06:21:30;;;;;;;11.23;5.50;;;7.40;99.90;;;;;;4977999;28;20459;-81
2023/11/11 06:23:57;;;;;;;6.07;4.17;;;7.40;99.90;;;;;;4978909;28;20543;-81
2023/11/11 06:26:25;;;;;;;5.40;3.80;;;7.40;99.90;;;;;;4978181;28;20476;-81
2023/11/11 06:28:52;;;;;;;5.10;3.60;;;7.50;99.90;;;;;;4978707;28;20451;-81
2023/11/11 06:31:19;;;;;;;5.77;3.67;;;7.50;99.90;;;;;;4979517;28;20466;-81
2023/11/11 06:33:46;;;;;;;5.23;3.00;;;7.50;99.90;;;;;;4979180;28;20926;-81
2023/11/11 06:36:15;;;;;;;6.77;3.77;;;7.50;99.90;;;;;;4979851;28;20540;-82
2023/11/11 06:38:42;;;;;;;4.33;3.00;;;7.60;99.90;;;;;;4979866;28;20583;-82
2023/11/11 06:41:09;;;;;;;5.00;4.03;;;7.50;99.90;;;;;;4980567;28;20458;-82
2023/11/11 06:43:37;;;;;;;6.93;3.20;;;7.60;99.90;;;;;;4980487;28;20451;-82
2023/11/11 06:46:05;;;;;;;7.43;3.67;;;7.60;99.90;;;;;;4986931;28;20472;-81
2023/11/11 06:48:32;;;;;;;3.83;2.67;;;7.50;99.90;;;;;;4986313;28;20456;-82
2023/11/11 06:50:59;;;;;;;5.60;2.73;;;7.40;99.90;;;;;;4988403;28;20464;-81
2023/11/11 06:53:26;;;;;;;5.00;2.60;;;7.50;99.90;;;;;;4989052;28;20443;-80
2023/11/11 06:55:53;;;;;;;4.70;2.33;;;7.40;99.90;;;;;;4989292;28;20475;-81
2023/11/11 06:58:20;;;;;;;4.67;2.67;;;7.50;99.90;;;;;;4980611;28;20493;-80
2023/11/11 07:00:48;;;;;;;4.00;2.83;;;7.50;99.90;;;;;;4978695;28;20464;-81
2023/11/11 07:03:15;;;;;;;6.27;2.90;;;7.50;99.90;;;;;;4978435;28;20819;-80
2023/11/11 07:05:42;;;;;;;3.23;2.53;;;7.50;99.90;;;;;;4976412;28;20489;-81
2023/11/11 07:08:09;;;;;;;3.77;2.57;;;7.40;99.90;;;;;;4976817;28;20461;-80
2023/11/11 07:10:37;;;;;;;6.33;2.30;;;7.50;99.90;;;;;;4977746;28;20459;-81
2023/11/11 07:13:04;;;;;;;6.27;3.20;;;7.50;99.90;;;;;;4977563;28;20472;-81
2023/11/11 07:15:31;;;;;;;6.47;3.57;;;7.50;99.90;;;;;;4977726;28;20510;-82
2023/11/11 07:17:59;;;;;;;4.43;2.70;;;7.60;99.90;;;;;;4976539;28;20502;-82
2023/11/11 07:20:28;;;;;;;6.90;3.87;;;7.60;99.90;;;;;;4976985;28;20560;-82
2023/11/11 07:22:55;;;;;;;7.70;4.00;;;7.60;99.90;;;;;;4978051;28;20557;-82
2023/11/11 07:25:23;;;;;;;10.97;6.40;;;7.60;99.90;;;;;;4977654;28;21024;-81
2023/11/11 07:27:50;;;;;;;10.87;6.13;;;7.60;99.90;;;;;;4976280;28;20460;-81
2023/11/11 07:30:17;;;;;;;8.40;6.83;;;7.60;99.90;;;;;;4978539;28;20460;-82
2023/11/11 07:32:44;;;;;;;8.23;6.70;;;7.60;99.90;;;;;;4971409;28;20456;-82
2023/11/11 07:35:14;;;;;;;12.37;8.50;;;7.60;99.90;;;;;;4976660;28;20484;-82
2023/11/11 07:37:42;;;;;;;8.90;6.83;;;7.60;99.90;;;;;;4978368;28;20487;-82
2023/11/11 07:40:12;;;;;;;9.90;7.70;;;7.70;99.90;;;;;;4977425;28;20456;-83
2023/11/11 07:42:39;;;;;;;18.33;7.93;;;7.80;99.90;;;;;;4973093;28;20467;-82
2023/11/11 07:45:06;;;;;;;13.30;8.77;;;7.80;99.90;;;;;;4977699;28;20579;-82
2023/11/11 07:47:33;;;;;;;17.70;8.97;;;7.90;99.90;;;;;;4967217;28;20950;-80
2023/11/11 07:50:00;;;;;;;13.00;8.20;;;7.90;99.90;;;;;;4974738;28;20544;-82
2023/11/11 07:52:29;;;;;;;12.30;9.63;;;7.90;99.90;;;;;;4977186;28;20457;-81
2023/11/11 07:54:58;;;;;;;12.70;9.87;;;7.90;99.90;;;;;;4977848;28;20544;-83
2023/11/11 07:57:25;;;;;;;15.33;10.50;;;7.90;99.90;;;;;;4975903;28;20469;-82
2023/11/11 07:59:52;;;;;;;14.43;11.43;;;8.00;99.90;;;;;;4978469;28;20457;-83
2023/11/11 08:02:18;;;;;;;13.10;9.10;;;8.00;99.90;;;;;;4978942;28;20537;-82
2023/11/11 08:04:45;;;;;;;15.70;10.37;;;8.10;99.90;;;;;;4971069;28;20486;-83
2023/11/11 08:07:13;;;;;;;15.17;10.83;;;8.10;99.90;;;;;;4973038;28;20536;-82
2023/11/11 08:09:41;;;;;;;13.63;10.40;;;8.00;99.90;;;;;;4971105;28;20449;-83
2023/11/11 08:12:09;;;;;;;16.80;10.23;;;8.00;99.90;;;;;;4978146;28;20465;-82
2023/11/11 08:14:36;;;;;;;14.93;9.53;;;8.00;99.90;;;;;;4978113;28;20595;-82
2023/11/11 08:17:03;;;;;;;12.20;9.13;;;8.00;99.90;;;;;;4978295;28;20789;-83
2023/11/11 08:19:30;;;;;;;14.93;9.83;;;8.00;99.90;;;;;;4975377;28;20488;-82
2023/11/11 08:21:57;;;;;;;17.97;11.67;;;8.00;99.90;;;;;;4979428;28;20467;-82
2023/11/11 08:24:24;;;;;;;19.30;10.70;;;7.90;99.90;;;;;;4976860;28;20540;-81
2023/11/11 08:26:52;;;;;;;12.63;9.53;;;7.90;99.90;;;;;;4976238;28;20466;-83
2023/11/11 08:29:19;;;;;;;11.43;9.40;;;8.00;99.90;;;;;;4975731;28;20463;-82
2023/11/11 08:31:46;;;;;;;14.97;9.80;;;7.90;99.90;;;;;;4977699;28;20491;-82
2023/11/11 08:34:13;;;;;;;11.80;9.30;;;8.00;99.90;;;;;;4976909;28;20875;-81
2023/11/11 08:36:40;;;;;;;13.17;9.83;;;7.90;99.90;;;;;;4977319;28;20541;-82
2023/11/11 08:39:07;;;;;;;14.83;10.47;;;8.00;99.90;;;;;;4977347;28;20497;-83
2023/11/11 08:41:34;;;;;;;12.93;9.10;;;7.90;99.90;;;;;;4971347;28;20461;-83
2023/11/11 08:44:03;;;;;;;11.07;8.53;;;7.90;99.90;;;;;;4978075;28;20475;-82
2023/11/11 08:46:30;;;;;;;13.83;9.20;;;8.00;99.90;;;;;;4978300;28;20491;-82
2023/11/11 08:48:57;;;;;;;13.17;9.60;;;8.10;99.90;;;;;;4978522;28;20446;-82
2023/11/11 08:51:24;;;;;;;12.83;9.00;;;8.30;99.90;;;;;;4978787;28;21238;-82
2023/11/11 08:53:51;;;;;;;17.00;10.70;;;8.40;99.90;;;;;;4979543;28;20833;-83
2023/11/11 08:56:18;;;;;;;14.50;9.77;;;8.50;99.90;;;;;;4979746;28;20490;-83
2023/11/11 08:58:45;;;;;;;14.00;9.50;;;8.50;99.90;;;;;;4983285;28;20519;-81
2023/11/11 09:01:13;;;;;;;11.80;8.63;;;8.40;99.90;;;;;;4976192;28;20467;-82
2023/11/11 09:03:40;;;;;;;10.23;8.20;;;8.40;99.90;;;;;;4977668;28;20488;-81
2023/11/11 09:06:09;;;;;;;12.50;9.07;;;8.40;99.90;;;;;;4977457;28;20480;-80
2023/11/11 09:08:36;;;;;;;12.53;9.93;;;8.50;99.90;;;;;;4976884;28;20462;-80
2023/11/11 09:11:03;;;;;;;15.77;9.17;;;8.40;99.90;;;;;;4976117;28;20466;-81
2023/11/11 09:13:30;;;;;;;13.40;9.77;;;8.40;99.90;;;;;;4976511;28;20878;-81
2023/11/11 09:15:57;;;;;;;17.20;10.17;;;8.40;99.90;;;;;;4976203;28;20568;-79
2023/11/11 09:18:25;;;;;;;12.70;9.30;;;8.40;99.90;;;;;;4976428;28;20515;-82
2023/11/11 09:20:52;;;;;;;13.20;9.40;;;8.40;99.90;;;;;;4976516;28;20517;-82
2023/11/11 09:23:19;;;;;;;14.10;8.87;;;8.40;99.90;;;;;;4977073;28;20462;-82
2023/11/11 09:25:46;;;;;;;12.90;8.73;;;8.50;99.90;;;;;;4977565;28;20513;-81
2023/11/11 09:28:13;;;;;;;12.07;9.20;;;8.60;99.90;;;;;;4974655;28;20460;-81
2023/11/11 09:30:40;;;;;;;18.90;10.60;;;8.50;99.90;;;;;;4977717;28;20465;-81
2023/11/11 09:33:08;;;;;;;15.47;8.70;;;8.60;99.90;;;;;;4977472;28;20471;-82
2023/11/11 09:35:36;;;;;;;13.90;9.97;;;8.60;99.90;;;;;;4977968;28;20492;-82
2023/11/11 09:38:03;;;;;;;13.63;9.53;;;8.70;99.90;;;;;;4977615;28;20465;-82
2023/11/11 09:40:30;;;;;;;15.10;8.53;;;8.80;99.90;;;;;;4977586;28;20476;-81
2023/11/11 09:42:57;;;;;;;17.10;8.60;;;8.80;99.90;;;;;;4975942;28;20468;-81
2023/11/11 09:45:24;;;;;;;13.00;9.30;;;8.70;99.90;;;;;;4975559;28;20560;-81
2023/11/11 09:47:53;;;;;;;16.23;11.20;;;8.80;99.90;;;;;;4977068;28;20462;-82
2023/11/11 09:50:23;;;;;;;12.00;9.00;;;8.70;99.90;;;;;;4977297;28;20491;-81
2023/11/11 09:52:52;;;;;;;17.10;8.43;;;8.80;99.90;;;;;;4979674;28;20470;-82
2023/11/11 09:55:20;;;;;;;15.60;9.80;;;8.80;99.90;;;;;;4976306;28;20834;-81
2023/11/11 09:57:48;;;;;;;10.27;8.00;;;8.80;99.90;;;;;;4975826;28;20476;-81
2023/11/11 10:00:16;;;;;;;12.80;9.10;;;8.80;99.90;;;;;;4977291;28;20493;-83
2023/11/11 10:02:43;;;;;;;15.53;9.87;;;8.90;99.90;;;;;;4977499;28;20468;-82
2023/11/11 10:05:11;;;;;;;12.87;8.00;;;8.70;99.90;;;;;;4976537;28;20550;-83
2023/11/11 10:07:39;;;;;;;18.63;11.90;;;8.80;99.90;;;;;;4977792;28;20460;-80
2023/11/11 10:10:12;;;;;;;11.33;8.40;;;8.70;99.90;;;;;;4975631;28;20556;-82
2023/11/11 10:12:39;;;;;;;12.90;9.07;;;8.80;99.90;;;;;;4971701;28;20957;-81
2023/11/11 10:15:08;;;;;;;11.47;7.70;;;8.70;99.90;;;;;;4974882;28;20521;-81
2023/11/11 10:17:38;;;;;;;11.90;8.90;;;8.70;99.90;;;;;;4975313;28;20893;-81
2023/11/11 10:20:10;;;;;;;8.77;7.83;;;8.80;99.90;;;;;;4973451;28;20576;-82
2023/11/11 10:22:43;;;;;;;11.53;8.37;;;8.80;99.90;;;;;;4967452;28;20497;-81
2023/11/11 10:25:14;;;;;;;8.80;7.23;;;8.80;99.90;;;;;;4973853;28;20477;-81
2023/11/11 10:27:41;;;;;;;15.13;7.80;;;8.80;99.90;;;;;;4976131;28;20926;-81
2023/11/11 10:30:18;;;;;;;12.17;8.77;;;8.80;99.90;;;;;;4975997;28;20450;-79
2023/11/11 10:32:48;;;;;;;9.67;7.53;;;8.90;99.90;;;;;;4974674;28;20834;-82
2023/11/11 10:35:16;;;;;;;11.47;6.90;;;9.00;99.90;;;;;;4973870;28;20475;-82
2023/11/11 10:37:43;;;;;;;9.97;7.97;;;9.10;99.90;;;;;;4971051;28;21121;-82
2023/11/11 10:40:13;;;;;;;13.20;7.67;;;9.20;99.90;;;;;;4972229;28;20503;-82
2023/11/11 10:42:41;;;;;;;11.40;7.70;;;9.10;99.90;;;;;;4970266;28;20543;-79
2023/11/11 10:45:12;;;;;;;13.33;8.30;;;9.10;99.90;;;;;;4976805;28;20489;-79
2023/11/11 10:47:40;;;;;;;12.53;7.50;;;9.20;99.90;;;;;;4973826;28;20458;-80
2023/11/11 10:50:08;;;;;;;16.30;8.30;;;9.30;99.90;;;;;;4967382;28;20994;-79
2023/11/11 10:52:36;;;;;;;14.77;7.70;;;9.40;99.90;;;;;;4977624;28;20533;-81
2023/11/11 10:55:05;;;;;;;10.00;7.00;;;9.60;99.90;;;;;;4971741;28;20484;-80
2023/11/11 10:57:34;;;;;;;12.77;7.90;;;9.80;99.90;;;;;;4977632;28;20548;-81
2023/11/11 11:00:00;;;;;;;9.10;7.03;;;9.80;99.90;;;;;;4977504;28;20578;-79
2023/11/11 11:02:27;;;;;;;10.73;7.23;;;9.70;99.90;;;;;;4976911;28;20474;-79
2023/11/11 11:05:03;;;;;;;9.50;7.60;;;9.70;99.90;;;;;;4973666;28;20510;-81
2023/11/11 11:07:39;;;;;;;9.67;6.57;;;9.70;99.90;;;;;;4969173;28;20464;-81
2023/11/11 11:10:12;;;;;;;10.53;7.77;;;9.60;99.90;;;;;;4973421;28;20536;-82
2023/11/11 11:12:51;;;;;;;8.00;6.20;;;9.40;99.90;;;;;;4977181;28;21001;-79
2023/11/11 11:15:20;;;;;;;8.07;7.27;;;9.60;99.90;;;;;;4975891;28;20485;-80
2023/11/11 11:17:51;;;;;;;9.60;6.80;;;9.60;99.90;;;;;;4983579;28;20466;-79
2023/11/11 11:20:24;;;;;;;7.50;5.83;;;9.50;99.90;;;;;;4991191;28;20490;-82
2023/11/11 11:22:57;;;;;;;12.43;6.33;;;9.60;99.90;;;;;;4991124;28;20474;-78
2023/11/11 11:25:36;;;;;;;11.63;7.90;;;9.50;99.90;;;;;;4991308;28;20509;-79
2023/11/11 11:28:22;;;;;;;11.07;7.17;;;9.80;99.90;;;;;;4993825;28;20483;-80
2023/11/11 11:30:53;;;;;;;8.70;5.40;;;9.90;99.90;;;;;;4994792;28;20451;-79
2023/11/11 11:33:21;;;;;;;9.43;5.07;;;10.00;99.90;;;;;;4995289;28;20459;-81
2023/11/11 11:35:50;;;;;;;9.50;5.43;;;10.20;99.90;;;;;;4992703;28;20506;-81
2023/11/11 11:38:31;;;;;;;8.43;6.20;;;10.30;99.90;;;;;;4991359;28;20477;-80
2023/11/11 11:41:04;;;;;;;9.90;5.77;;;10.10;60.60;;;;;;4993887;28;20487;-81
2023/11/11 11:43:35;;;;;;;12.03;5.70;;;10.00;69.50;;;;;;4994326;28;20467;-81
2023/11/11 11:46:04;;;;;;;8.63;6.00;;;9.80;99.90;;;;;;4994474;28;20478;-82
2023/11/11 11:48:31;;;;;;;9.10;5.67;;;9.80;93.20;;;;;;4981028;28;20886;-81
2023/11/11 11:51:12;;;;;;;10.23;5.10;;;9.80;99.90;;;;;;4980970;28;20446;-82
2023/11/11 11:53:41;;;;;;;23.03;6.90;;;9.80;99.90;;;;;;4981022;28;20836;-81
2023/11/11 11:56:10;;;;;;;9.90;5.00;;;9.90;99.90;;;;;;4981205;28;20487;-81
2023/11/11 11:58:48;;;;;;;9.23;5.63;;;10.30;99.90;;;;;;4980068;28;20518;-82
2023/11/11 12:01:22;;;;;;;8.60;5.30;;;10.60;99.90;;;;;;4981346;28;20458;-83
2023/11/11 12:03:50;;;;;;;7.87;4.60;;;10.70;99.90;;;;;;4981252;28;20470;-82
2023/11/11 12:06:17;;;;;;;8.33;4.60;;;10.70;27.40;;;;;;4980071;28;20488;-81
2023/11/11 12:08:48;;;;;;;7.13;4.20;;;10.80;30.70;;;;;;4980844;28;20518;-82
2023/11/11 12:11:14;;;;;;;10.83;4.03;;;10.90;11.80;;;;;;4981289;28;20467;-82
2023/11/11 12:13:41;;;;;;;8.03;4.80;;;10.80;1.00;;;;;;4981123;28;20456;-82
2023/11/11 12:16:09;;;;;;;5.73;3.97;;;10.70;1.00;;;;;;4980657;28;20475;-82
2023/11/11 12:18:36;;;;;;;8.60;4.70;;;10.70;33.30;;;;;;4980225;28;20469;-82
2023/11/11 12:21:03;;;;;;;6.67;4.10;;;10.70;43.20;;;;;;4981781;28;20900;-81
2023/11/11 12:23:30;;;;;;;6.70;4.40;;;10.50;61.60;;;;;;4982642;28;20539;-82
2023/11/11 12:25:57;;;;;;;7.50;4.07;;;10.60;79.70;;;;;;4980492;28;20483;-83
2023/11/11 12:28:24;;;;;;;7.67;3.43;;;10.50;33.40;;;;;;4979983;28;20550;-82
2023/11/11 12:31:04;;;;;;;15.93;4.37;;;10.50;35.80;;;;;;4979420;28;20537;-82
2023/11/11 12:33:32;;;;;;;6.33;3.67;;;10.40;78.20;;;;;;4979715;28;20463;-82
2023/11/11 12:36:00;;;;;;;7.33;4.13;;;10.40;96.30;;;;;;4979564;28;20566;-82
2023/11/11 12:38:28;;;;;;;8.63;3.60;;;10.30;99.90;;;;;;4971391;28;20451;-82
2023/11/11 12:41:00;;;;;;;6.43;3.87;;;10.30;99.90;;;;;;4985909;28;20498;-83
2023/11/11 12:43:27;;;;;;;7.30;4.80;;;10.20;99.90;;;;;;4982826;28;20506;-82
2023/11/11 12:45:55;;;;;;;6.03;3.87;;;9.90;99.90;;;;;;4980449;28;20565;-82
2023/11/11 12:48:23;;;;;;;6.70;3.87;;;9.60;99.90;;;;;;4982913;28;20530;-82
2023/11/11 12:50:53;;;;;;;8.07;4.13;;;9.40;99.90;;;;;;4981441;28;20470;-82